createdAt,value
2022-08-25T00:00:54.272Z,4.10
2022-08-25T00:01:54.612Z,3.90
2022-08-25T00:02:56.443Z,3.70
2022-08-25T00:03:55.219Z,3.60
2022-08-25T00:04:55.546Z,3.70
2022-08-25T00:05:55.839Z,4.10
2022-08-25T00:07:00.673Z,3.60
2022-08-25T00:07:57.359Z,4.20
2022-08-25T00:08:56.625Z,3.90
2022-08-25T00:09:56.946Z,4.10
2022-08-25T00:11:03.099Z,4.80
2022-08-25T00:11:58.610Z,3.90
2022-08-25T00:12:57.883Z,4.20
2022-08-25T00:13:58.217Z,4.20
2022-08-25T00:14:58.558Z,4.50
2022-08-25T00:15:58.951Z,3.90
2022-08-25T00:16:59.148Z,4.10
2022-08-25T00:17:59.555Z,4.00
2022-08-25T00:19:00.122Z,4.60
2022-08-25T00:20:00.041Z,4.00
2022-08-25T00:21:00.401Z,3.60
2022-08-25T00:22:00.630Z,3.80
2022-08-25T00:23:00.840Z,4.10
2022-08-25T00:24:01.181Z,4.00
2022-08-25T00:25:01.520Z,4.00
2022-08-25T00:26:01.871Z,4.50
2022-08-25T00:27:02.091Z,4.10
2022-08-25T00:28:07.811Z,4.30
2022-08-25T00:29:03.776Z,4.40
2022-08-25T00:30:03.051Z,4.30
2022-08-25T00:31:03.470Z,4.20
2022-08-25T00:32:03.711Z,4.20
2022-08-25T00:33:04.043Z,3.80
2022-08-25T00:34:04.366Z,4.20
2022-08-25T00:35:04.649Z,4.10
2022-08-25T00:36:05.125Z,4.60
2022-08-25T00:37:05.316Z,4.10
2022-08-25T00:38:05.687Z,4.60
2022-08-25T00:39:05.876Z,4.50
2022-08-25T00:40:06.132Z,4.70
2022-08-25T00:41:06.372Z,5.00
2022-08-25T00:42:07.454Z,4.50
2022-08-25T00:43:07.920Z,5.10
2022-08-25T00:44:07.186Z,4.80
2022-08-25T00:45:07.519Z,4.60
2022-08-25T00:46:07.908Z,5.10
2022-08-25T00:47:08.145Z,5.00
2022-08-25T00:48:08.467Z,4.90
2022-08-25T00:49:08.818Z,5.00
2022-08-25T00:50:10.160Z,5.50
2022-08-25T00:51:09.428Z,5.70
2022-08-25T00:52:09.752Z,5.60
2022-08-25T00:53:10.083Z,5.70
2022-08-25T00:54:10.412Z,6.00
2022-08-25T00:55:10.763Z,5.30
2022-08-25T00:56:10.974Z,6.00
2022-08-25T00:57:11.204Z,5.40
2022-08-25T00:58:11.537Z,6.00
2022-08-25T00:59:11.864Z,6.00
2022-08-25T01:00:12.207Z,5.50
2022-08-25T01:01:12.610Z,7.00
2022-08-25T01:02:13.870Z,8.10
2022-08-25T01:03:13.152Z,7.10
2022-08-25T01:04:13.348Z,9.40
2022-08-25T01:05:13.726Z,9.90
2022-08-25T01:06:13.952Z,11.70
2022-08-25T01:07:17.459Z,12.10
2022-08-25T01:08:16.348Z,12.90
2022-08-25T01:09:14.787Z,12.30
2022-08-25T01:10:15.049Z,13.60
2022-08-25T01:11:15.290Z,13.80
2022-08-25T01:12:15.533Z,14.30
2022-08-25T01:13:16.535Z,14.90
2022-08-25T01:14:16.131Z,14.00
2022-08-25T01:15:16.391Z,15.10
2022-08-25T01:16:16.704Z,14.20
2022-08-25T01:17:16.970Z,14.60
2022-08-25T01:18:17.201Z,14.00
2022-08-25T01:19:17.432Z,14.10
2022-08-25T01:20:17.703Z,12.80
2022-08-25T01:21:17.953Z,12.40
2022-08-25T01:22:18.185Z,13.10
2022-08-25T01:23:18.433Z,12.50
2022-08-25T01:24:18.662Z,12.70
2022-08-25T01:25:18.924Z,13.20
2022-08-25T01:26:19.154Z,14.00
2022-08-25T01:27:19.495Z,12.40
2022-08-25T01:28:19.755Z,10.90
2022-08-25T01:29:19.994Z,12.90
2022-08-25T01:30:20.253Z,11.20
2022-08-25T01:31:23.679Z,11.50
2022-08-25T01:32:20.763Z,11.00
2022-08-25T01:33:21.014Z,10.80
2022-08-25T01:34:21.247Z,11.30
2022-08-25T01:35:21.519Z,11.50
2022-08-25T01:36:21.756Z,10.90
2022-08-25T01:37:21.987Z,10.90
2022-08-25T01:38:23.071Z,12.30
2022-08-25T01:39:22.560Z,11.10
2022-08-25T01:40:22.840Z,11.80
2022-08-25T01:41:23.101Z,11.80
2022-08-25T01:42:23.343Z,9.70
2022-08-25T01:43:23.578Z,10.60
2022-08-25T01:44:23.821Z,11.00
2022-08-25T01:45:24.069Z,11.20
2022-08-25T01:46:24.482Z,9.70
2022-08-25T01:47:24.681Z,10.70
2022-08-25T01:48:24.928Z,10.40
2022-08-25T01:49:25.172Z,8.80
2022-08-25T01:50:25.423Z,8.90
2022-08-25T01:51:25.646Z,8.10
2022-08-25T01:52:26.004Z,8.40
2022-08-25T01:53:26.239Z,7.90
2022-08-25T01:54:26.587Z,9.80
2022-08-25T01:55:26.813Z,9.00
2022-08-25T01:56:27.154Z,9.30
2022-08-25T01:57:27.505Z,10.90
2022-08-25T01:58:27.738Z,10.30
2022-08-25T01:59:27.995Z,9.20
2022-08-25T02:00:28.217Z,10.20
2022-08-25T02:01:28.550Z,9.60
2022-08-25T02:02:28.883Z,9.70
2022-08-25T02:03:29.087Z,10.60
2022-08-25T02:04:29.349Z,10.90
2022-08-25T02:05:29.597Z,9.80
2022-08-25T02:06:30.223Z,9.90
2022-08-25T02:07:30.270Z,10.50
2022-08-25T02:08:30.520Z,8.90
2022-08-25T02:09:30.759Z,10.20
2022-08-25T02:10:30.989Z,11.70
2022-08-25T02:11:31.232Z,10.80
2022-08-25T02:12:31.472Z,10.30
2022-08-25T02:13:32.610Z,10.20
2022-08-25T02:14:32.022Z,8.70
2022-08-25T02:15:32.271Z,9.40
2022-08-25T02:16:32.502Z,9.60
2022-08-25T02:17:32.761Z,10.30
2022-08-25T02:18:33.000Z,10.20
2022-08-25T02:19:33.254Z,10.60
2022-08-25T02:20:33.494Z,9.40
2022-08-25T02:21:33.853Z,10.10
2022-08-25T02:22:34.111Z,9.50
2022-08-25T02:23:34.333Z,8.70
2022-08-25T02:24:34.682Z,9.50
2022-08-25T02:25:35.032Z,10.00
2022-08-25T02:26:35.283Z,8.00
2022-08-25T02:27:35.506Z,8.60
2022-08-25T02:28:35.836Z,9.60
2022-08-25T02:29:36.218Z,8.80
2022-08-25T02:30:36.549Z,9.70
2022-08-25T02:31:36.785Z,8.80
2022-08-25T02:32:37.009Z,9.40
2022-08-25T02:33:37.273Z,9.40
2022-08-25T02:34:37.480Z,8.30
2022-08-25T02:35:37.825Z,8.70
2022-08-25T02:36:38.154Z,9.00
2022-08-25T02:37:38.512Z,9.80
2022-08-25T02:38:38.743Z,9.60
2022-08-25T02:39:38.971Z,9.10
2022-08-25T02:40:39.312Z,10.20
2022-08-25T02:41:39.564Z,9.10
2022-08-25T02:42:39.783Z,10.00
2022-08-25T02:43:40.042Z,9.50
2022-08-25T02:44:40.286Z,9.90
2022-08-25T02:45:40.576Z,9.00
2022-08-25T02:46:40.795Z,10.00
2022-08-25T02:47:41.057Z,8.50
2022-08-25T02:48:41.395Z,9.10
2022-08-25T02:49:41.627Z,9.70
2022-08-25T02:50:41.882Z,9.00
2022-08-25T02:51:42.095Z,9.60
2022-08-25T02:52:42.448Z,8.70
2022-08-25T02:53:42.823Z,9.90
2022-08-25T02:54:43.048Z,10.20
2022-08-25T02:55:43.338Z,9.60
2022-08-25T02:56:44.224Z,10.00
2022-08-25T02:57:43.850Z,9.90
2022-08-25T02:58:44.104Z,9.00
2022-08-25T02:59:44.334Z,9.90
2022-08-25T03:00:44.698Z,9.40
2022-08-25T03:01:45.045Z,9.90
2022-08-25T03:02:45.286Z,9.80
2022-08-25T03:03:45.712Z,8.90
2022-08-25T03:04:45.962Z,9.30
2022-08-25T03:05:46.195Z,9.70
2022-08-25T03:06:46.545Z,10.70
2022-08-25T03:07:46.780Z,9.50
2022-08-25T03:08:47.123Z,10.00
2022-08-25T03:09:47.363Z,10.10
2022-08-25T03:10:47.593Z,11.30
2022-08-25T03:11:47.824Z,10.00
2022-08-25T03:12:48.073Z,10.70
2022-08-25T03:13:48.334Z,10.00
2022-08-25T03:14:48.582Z,10.50
2022-08-25T03:15:49.362Z,10.60
2022-08-25T03:16:49.140Z,10.10
2022-08-25T03:17:49.409Z,10.50
2022-08-25T03:18:49.686Z,10.40
2022-08-25T03:19:49.966Z,11.00
2022-08-25T03:20:50.209Z,11.00
2022-08-25T03:21:50.477Z,9.80
2022-08-25T03:22:50.708Z,10.50
2022-08-25T03:23:50.957Z,11.10
2022-08-25T03:24:51.239Z,11.50
2022-08-25T03:25:51.490Z,11.60
2022-08-25T03:26:51.719Z,11.20
2022-08-25T03:27:51.991Z,12.30
2022-08-25T03:28:52.218Z,10.80
2022-08-25T03:29:52.490Z,10.50
2022-08-25T03:30:56.091Z,11.00
2022-08-25T03:31:53.073Z,10.80
2022-08-25T03:32:53.243Z,11.90
2022-08-25T03:33:53.513Z,10.00
2022-08-25T03:34:53.742Z,11.40
2022-08-25T03:35:54.000Z,11.30
2022-08-25T03:36:54.235Z,11.40
2022-08-25T03:37:54.483Z,11.60
2022-08-25T03:38:54.731Z,12.00
2022-08-25T03:39:55.003Z,12.50
2022-08-25T03:40:55.221Z,12.40
2022-08-25T03:41:55.487Z,12.10
2022-08-25T03:42:55.718Z,12.00
2022-08-25T03:43:55.957Z,11.50
2022-08-25T03:44:56.205Z,12.30
2022-08-25T03:45:56.556Z,13.00
2022-08-25T03:46:56.818Z,12.70
2022-08-25T03:47:57.067Z,12.70
2022-08-25T03:48:57.356Z,12.00
2022-08-25T03:49:57.671Z,10.90
2022-08-25T03:50:57.939Z,13.50
2022-08-25T03:51:58.190Z,13.10
2022-08-25T03:52:58.446Z,13.20
2022-08-25T03:53:58.711Z,12.70
2022-08-25T03:54:58.969Z,12.80
2022-08-25T03:55:59.240Z,12.10
2022-08-25T03:56:59.516Z,12.50
2022-08-25T03:57:59.830Z,12.50
2022-08-25T03:59:00.010Z,12.40
2022-08-25T04:00:00.262Z,13.20
2022-08-25T04:01:00.672Z,12.30
2022-08-25T04:02:00.820Z,12.20
2022-08-25T04:03:01.080Z,12.70
2022-08-25T04:04:01.361Z,12.40
2022-08-25T04:05:01.608Z,13.00
2022-08-25T04:06:01.872Z,13.00
2022-08-25T04:07:02.142Z,11.40
2022-08-25T04:08:02.530Z,12.60
2022-08-25T04:09:02.715Z,13.20
2022-08-25T04:10:02.976Z,13.60
2022-08-25T04:11:03.245Z,12.80
2022-08-25T04:12:03.534Z,13.40
2022-08-25T04:13:03.818Z,14.30
2022-08-25T04:14:04.107Z,13.50
2022-08-25T04:15:04.402Z,13.40
2022-08-25T04:16:04.725Z,12.30
2022-08-25T04:17:04.977Z,12.60
2022-08-25T04:18:05.437Z,13.70
2022-08-25T04:19:05.530Z,13.00
2022-08-25T04:20:05.807Z,12.90
2022-08-25T04:21:06.079Z,12.60
2022-08-25T04:22:06.354Z,13.50
2022-08-25T04:23:06.632Z,13.10
2022-08-25T04:24:06.919Z,13.80
2022-08-25T04:25:07.202Z,11.50
2022-08-25T04:26:07.484Z,11.70
2022-08-25T04:27:07.774Z,12.20
2022-08-25T04:28:08.051Z,13.00
2022-08-25T04:29:08.351Z,11.80
2022-08-25T04:30:08.637Z,13.00
2022-08-25T04:31:08.894Z,12.70
2022-08-25T04:32:09.251Z,11.70
2022-08-25T04:33:09.545Z,12.30
2022-08-25T04:34:17.682Z,11.90
2022-08-25T04:35:11.144Z,11.80
2022-08-25T04:36:12.357Z,12.20
2022-08-25T04:37:10.656Z,12.20
2022-08-25T04:38:10.926Z,12.60
2022-08-25T04:39:11.245Z,10.90
2022-08-25T04:40:11.594Z,11.30
2022-08-25T04:41:11.794Z,11.00
2022-08-25T04:42:12.125Z,10.80
2022-08-25T04:43:12.416Z,11.00
2022-08-25T04:44:12.710Z,12.70
2022-08-25T04:45:13.003Z,12.10
2022-08-25T04:46:13.320Z,12.00
2022-08-25T04:47:14.560Z,10.50
2022-08-25T04:48:13.772Z,12.00
2022-08-25T04:49:14.079Z,12.00
2022-08-25T04:50:14.392Z,12.20
2022-08-25T04:51:14.764Z,11.80
2022-08-25T04:52:14.962Z,12.30
2022-08-25T04:53:15.262Z,10.90
2022-08-25T04:54:15.685Z,10.90
2022-08-25T04:55:15.841Z,12.00
2022-08-25T04:56:16.183Z,12.40
2022-08-25T04:57:16.591Z,11.30
2022-08-25T04:58:16.769Z,11.80
2022-08-25T04:59:17.088Z,11.50
2022-08-25T05:00:17.361Z,12.60
2022-08-25T05:01:17.797Z,12.10
2022-08-25T05:02:18.179Z,11.80
2022-08-25T05:03:18.473Z,12.00
2022-08-25T05:04:28.221Z,11.60
2022-08-25T05:05:19.757Z,11.90
2022-08-25T05:06:19.141Z,12.10
2022-08-25T05:07:19.412Z,12.50
2022-08-25T05:08:19.670Z,11.30
2022-08-25T05:09:20.012Z,11.90
2022-08-25T05:10:20.447Z,11.30
2022-08-25T05:11:23.900Z,12.30
2022-08-25T05:12:20.822Z,11.70
2022-08-25T05:13:21.126Z,12.70
2022-08-25T05:14:25.726Z,12.70
2022-08-25T05:15:23.092Z,11.40
2022-08-25T05:16:22.459Z,11.00
2022-08-25T05:17:22.559Z,10.00
2022-08-25T05:18:22.742Z,11.10
2022-08-25T05:19:22.872Z,11.40
2022-08-25T05:20:23.636Z,12.20
2022-08-25T05:21:23.230Z,12.50
2022-08-25T05:22:23.657Z,12.80
2022-08-25T05:23:24.113Z,12.70
2022-08-25T05:24:24.210Z,13.20
2022-08-25T05:25:24.507Z,13.10
2022-08-25T05:26:24.851Z,13.80
2022-08-25T05:27:25.215Z,12.40
2022-08-25T05:28:25.404Z,12.10
2022-08-25T05:29:25.717Z,12.50
2022-08-25T05:30:25.994Z,11.80
2022-08-25T05:31:26.394Z,12.80
2022-08-25T05:32:26.578Z,12.50
2022-08-25T05:33:26.877Z,13.00
2022-08-25T05:34:27.157Z,13.70
2022-08-25T05:35:27.439Z,13.10
2022-08-25T05:36:27.735Z,11.90
2022-08-25T05:37:28.019Z,12.30
2022-08-25T05:38:28.288Z,13.20
2022-08-25T05:39:28.610Z,13.40
2022-08-25T05:40:28.949Z,13.50
2022-08-25T05:41:29.132Z,14.00
2022-08-25T05:42:29.422Z,13.80
2022-08-25T05:43:29.723Z,13.70
2022-08-25T05:44:30.047Z,13.50
2022-08-25T05:45:30.436Z,13.60
2022-08-25T05:46:31.815Z,14.40
2022-08-25T05:47:30.874Z,14.20
2022-08-25T05:48:31.182Z,14.60
2022-08-25T05:49:31.500Z,13.50
2022-08-25T05:50:31.815Z,14.00
2022-08-25T05:51:32.143Z,13.90
2022-08-25T05:52:32.444Z,14.20
2022-08-25T05:53:33.992Z,14.10
2022-08-25T05:54:32.997Z,14.80
2022-08-25T05:55:33.296Z,15.20
2022-08-25T05:56:33.577Z,15.50
2022-08-25T05:57:33.907Z,16.00
2022-08-25T05:58:34.209Z,15.90
2022-08-25T05:59:34.530Z,15.20
2022-08-25T06:00:34.829Z,14.90
2022-08-25T06:01:35.128Z,16.50
2022-08-25T06:02:35.421Z,14.80
2022-08-25T06:03:35.782Z,15.20
2022-08-25T06:04:39.572Z,14.30
2022-08-25T06:05:37.273Z,15.40
2022-08-25T06:06:36.490Z,14.30
2022-08-25T06:07:36.770Z,13.60
2022-08-25T06:08:37.071Z,14.20
2022-08-25T06:09:37.372Z,14.90
2022-08-25T06:10:37.641Z,14.10
2022-08-25T06:11:37.922Z,16.00
2022-08-25T06:12:38.204Z,15.50
2022-08-25T06:13:38.472Z,16.10
2022-08-25T06:14:38.765Z,16.10
2022-08-25T06:15:40.780Z,15.50
2022-08-25T06:16:39.556Z,14.90
2022-08-25T06:17:39.579Z,15.40
2022-08-25T06:18:39.858Z,16.40
2022-08-25T06:19:41.379Z,15.90
2022-08-25T06:20:40.423Z,17.30
2022-08-25T06:21:40.693Z,18.10
2022-08-25T06:22:40.972Z,18.10
2022-08-25T06:23:41.257Z,18.30
2022-08-25T06:24:41.539Z,16.90
2022-08-25T06:25:41.838Z,18.50
2022-08-25T06:26:42.117Z,19.30
2022-08-25T06:27:42.408Z,18.50
2022-08-25T06:28:42.712Z,19.10
2022-08-25T06:29:43.003Z,17.70
2022-08-25T06:30:43.273Z,17.60
2022-08-25T06:31:43.669Z,19.20
2022-08-25T06:32:43.812Z,19.70
2022-08-25T06:33:44.109Z,18.40
2022-08-25T06:34:44.387Z,18.30
2022-08-25T06:35:44.662Z,18.80
2022-08-25T06:36:44.944Z,18.30
2022-08-25T06:37:45.191Z,19.30
2022-08-25T06:38:45.504Z,18.50
2022-08-25T06:39:45.829Z,17.90
2022-08-25T06:40:46.103Z,18.50
2022-08-25T06:41:46.393Z,19.40
2022-08-25T06:42:46.677Z,19.30
2022-08-25T06:43:50.760Z,19.80
2022-08-25T06:44:48.299Z,19.50
2022-08-25T06:45:47.518Z,19.90
2022-08-25T06:46:47.854Z,22.10
2022-08-25T06:47:48.125Z,20.80
2022-08-25T06:48:48.427Z,18.30
2022-08-25T06:49:48.718Z,17.60
2022-08-25T06:50:48.996Z,19.90
2022-08-25T06:51:49.306Z,18.70
2022-08-25T06:52:49.610Z,20.30
2022-08-25T06:53:49.916Z,19.10
2022-08-25T06:54:50.199Z,19.20
2022-08-25T06:55:50.479Z,19.60
2022-08-25T06:56:50.772Z,17.80
2022-08-25T06:57:51.057Z,17.30
2022-08-25T06:58:51.371Z,17.90
2022-08-25T06:59:53.387Z,17.30
2022-08-25T07:00:51.987Z,18.80
2022-08-25T07:01:52.276Z,16.80
2022-08-25T07:02:52.463Z,17.80
2022-08-25T07:03:52.785Z,18.20
2022-08-25T07:04:53.094Z,19.80
2022-08-25T07:05:53.388Z,19.50
2022-08-25T07:06:53.666Z,18.80
2022-08-25T07:07:53.944Z,19.50
2022-08-25T07:08:54.233Z,20.60
2022-08-25T07:09:54.537Z,20.80
2022-08-25T07:10:54.744Z,20.60
2022-08-25T07:11:55.028Z,19.50
2022-08-25T07:12:55.347Z,17.70
2022-08-25T07:13:55.638Z,19.30
2022-08-25T07:15:09.974Z,17.80
2022-08-25T07:15:57.195Z,19.60
2022-08-25T07:16:56.467Z,19.20
2022-08-25T07:17:56.759Z,19.10
2022-08-25T07:18:57.059Z,19.70
2022-08-25T07:19:57.433Z,19.80
2022-08-25T07:20:57.561Z,22.20
2022-08-25T07:21:57.870Z,22.40
2022-08-25T07:22:58.168Z,22.80
2022-08-25T07:23:58.487Z,20.50
2022-08-25T07:24:58.754Z,20.00
2022-08-25T07:25:59.063Z,22.30
2022-08-25T07:26:59.354Z,24.00
2022-08-25T07:27:59.643Z,24.70
2022-08-25T07:28:59.944Z,24.00
2022-08-25T07:30:00.219Z,25.00
2022-08-25T07:31:00.541Z,25.20
2022-08-25T07:32:00.847Z,22.90
2022-08-25T07:33:05.862Z,26.30
2022-08-25T07:34:02.435Z,27.80
2022-08-25T07:35:01.662Z,28.40
2022-08-25T07:36:01.966Z,27.20
2022-08-25T07:37:02.257Z,27.00
2022-08-25T07:38:02.597Z,28.50
2022-08-25T07:39:02.910Z,26.90
2022-08-25T07:40:03.253Z,27.60
2022-08-25T07:41:03.512Z,27.90
2022-08-25T07:42:03.799Z,29.10
2022-08-25T07:43:04.169Z,29.50
2022-08-25T07:44:04.414Z,30.10
2022-08-25T07:45:04.690Z,29.20
2022-08-25T07:46:04.971Z,28.10
2022-08-25T07:47:05.242Z,28.70
2022-08-25T07:48:05.524Z,25.60
2022-08-25T07:49:16.415Z,28.70
2022-08-25T07:50:07.071Z,27.50
2022-08-25T07:51:07.525Z,29.40
2022-08-25T07:52:06.999Z,28.80
2022-08-25T07:53:07.291Z,27.20
2022-08-25T07:54:07.247Z,26.90
2022-08-25T07:55:08.356Z,28.30
2022-08-25T07:56:07.800Z,27.50
2022-08-25T07:57:08.071Z,26.80
2022-08-25T07:58:08.648Z,25.60
2022-08-25T07:59:08.717Z,26.70
2022-08-25T08:00:08.947Z,25.80
2022-08-25T08:01:09.287Z,27.80
2022-08-25T08:02:18.508Z,25.50
2022-08-25T08:03:19.755Z,24.50
2022-08-25T08:04:11.850Z,25.80
2022-08-25T08:05:10.439Z,27.10
2022-08-25T08:06:10.732Z,25.20
2022-08-25T08:07:12.062Z,24.50
2022-08-25T08:08:11.249Z,26.70
2022-08-25T08:09:11.570Z,26.90
2022-08-25T08:10:42.460Z,28.00
2022-08-25T08:11:13.121Z,26.70
2022-08-25T08:12:12.340Z,25.60
2022-08-25T08:13:15.425Z,25.80
2022-08-25T08:14:13.901Z,25.10
2022-08-25T08:15:13.304Z,26.20
2022-08-25T08:16:13.586Z,27.20
2022-08-25T08:17:13.745Z,26.10
2022-08-25T08:18:14.033Z,24.80
2022-08-25T08:19:14.285Z,26.60
2022-08-25T08:20:14.567Z,25.90
2022-08-25T08:21:18.984Z,26.10
2022-08-25T08:22:15.145Z,25.60
2022-08-25T08:23:15.420Z,26.70
2022-08-25T08:24:40.252Z,24.60
2022-08-25T08:25:18.878Z,24.20
2022-08-25T08:26:16.293Z,24.30
2022-08-25T08:27:16.548Z,24.50
2022-08-25T08:28:16.785Z,25.10
2022-08-25T08:29:17.069Z,23.60
2022-08-25T08:30:17.377Z,22.70
2022-08-25T08:31:17.674Z,23.50
2022-08-25T08:32:17.968Z,22.80
2022-08-25T08:33:18.169Z,24.40
2022-08-25T08:34:18.461Z,22.60
2022-08-25T08:35:18.753Z,21.10
2022-08-25T08:36:19.032Z,22.70
2022-08-25T08:37:20.362Z,23.80
2022-08-25T08:38:22.281Z,22.30
2022-08-25T08:39:20.952Z,21.90
2022-08-25T08:40:20.464Z,24.70
2022-08-25T08:41:22.949Z,25.90
2022-08-25T08:42:20.813Z,24.40
2022-08-25T08:43:21.075Z,23.60
2022-08-25T08:44:21.398Z,23.00
2022-08-25T08:45:21.660Z,21.80
2022-08-25T08:46:22.026Z,20.50
2022-08-25T08:47:22.509Z,19.40
2022-08-25T08:48:22.508Z,19.10
2022-08-25T08:49:22.800Z,19.90
2022-08-25T08:50:30.706Z,19.60
2022-08-25T08:51:24.377Z,20.80
2022-08-25T08:52:23.697Z,19.30
2022-08-25T08:53:24.028Z,19.40
2022-08-25T08:54:24.318Z,19.30
2022-08-25T08:55:24.601Z,19.60
2022-08-25T08:56:24.879Z,21.90
2022-08-25T08:57:26.111Z,20.40
2022-08-25T08:58:26.535Z,18.80
2022-08-25T08:59:30.118Z,18.50
2022-08-25T09:00:26.983Z,18.30
2022-08-25T09:01:26.346Z,19.40
2022-08-25T09:02:38.956Z,19.20
2022-08-25T09:03:27.825Z,18.10
2022-08-25T09:04:27.041Z,18.90
2022-08-25T09:05:27.354Z,20.30
2022-08-25T09:06:28.434Z,20.30
2022-08-25T09:07:27.886Z,19.10
2022-08-25T09:08:28.124Z,17.50
2022-08-25T09:09:28.437Z,17.40
2022-08-25T09:10:28.717Z,18.10
2022-08-25T09:11:30.610Z,15.80
2022-08-25T09:12:29.239Z,14.20
2022-08-25T09:13:29.518Z,13.10
2022-08-25T09:15:52.807Z,12.50
2022-08-25T09:16:53.015Z,13.10
2022-08-25T09:17:54.391Z,13.20
2022-08-25T09:18:53.554Z,12.60
2022-08-25T09:19:53.862Z,11.70
2022-08-25T09:20:54.144Z,11.60
2022-08-25T09:21:54.436Z,11.50
2022-08-25T09:22:54.745Z,10.60
2022-08-25T09:23:55.080Z,10.90
2022-08-25T09:24:55.385Z,11.90
2022-08-25T09:25:55.647Z,11.40
2022-08-25T09:26:55.946Z,11.20
2022-08-25T09:27:56.188Z,10.70
2022-08-25T09:28:56.493Z,11.00
2022-08-25T09:29:56.750Z,11.50
2022-08-25T09:30:57.146Z,11.10
2022-08-25T09:31:57.266Z,10.90
2022-08-25T09:32:57.537Z,9.60
2022-08-25T09:33:57.890Z,9.90
2022-08-25T09:34:58.155Z,10.40
2022-08-25T09:35:58.455Z,9.60
2022-08-25T09:36:58.752Z,9.70
2022-08-25T09:37:59.067Z,9.40
2022-08-25T09:38:59.354Z,8.60
2022-08-25T09:39:59.666Z,9.10
2022-08-25T09:41:00.817Z,8.90
2022-08-25T09:42:00.309Z,8.70
2022-08-25T09:43:00.568Z,8.90
2022-08-25T09:44:00.871Z,8.60
2022-08-25T09:45:01.136Z,9.70
2022-08-25T09:46:01.486Z,9.60
2022-08-25T09:47:01.731Z,9.00
2022-08-25T09:48:01.988Z,8.60
2022-08-25T09:49:02.268Z,8.90
2022-08-25T09:50:04.460Z,8.10
2022-08-25T09:51:02.770Z,8.90
2022-08-25T09:52:03.105Z,7.90
2022-08-25T09:53:03.366Z,9.20
2022-08-25T09:54:10.508Z,11.10
2022-08-25T09:55:04.921Z,11.10
2022-08-25T09:56:04.151Z,10.40
2022-08-25T09:57:04.414Z,10.70
2022-08-25T09:58:09.519Z,11.50
2022-08-25T09:59:06.006Z,10.70
2022-08-25T10:00:06.404Z,10.00
2022-08-25T10:01:05.546Z,10.50
2022-08-25T10:02:05.881Z,11.50
2022-08-25T10:03:06.520Z,10.90
2022-08-25T10:04:06.340Z,10.80
2022-08-25T10:05:07.627Z,10.80
2022-08-25T10:06:06.836Z,11.30
2022-08-25T10:07:08.690Z,11.70
2022-08-25T10:08:07.359Z,11.80
2022-08-25T10:09:07.660Z,13.70
2022-08-25T10:10:08.061Z,14.20
2022-08-25T10:11:08.707Z,13.80
2022-08-25T10:12:08.570Z,12.10
2022-08-25T10:13:09.158Z,11.90
2022-08-25T10:14:09.274Z,11.60
2022-08-25T10:15:09.542Z,11.50
2022-08-25T10:16:20.652Z,11.30
2022-08-25T10:17:11.093Z,10.70
2022-08-25T10:18:10.303Z,11.10
2022-08-25T10:19:10.631Z,12.60
2022-08-25T10:20:10.906Z,12.20
2022-08-25T10:21:11.187Z,13.10
2022-08-25T10:22:11.513Z,13.10
2022-08-25T10:23:11.793Z,12.50
2022-08-25T10:24:12.184Z,12.70
2022-08-25T10:25:12.394Z,13.20
2022-08-25T10:26:12.567Z,13.30
2022-08-25T10:27:12.901Z,14.30
2022-08-25T10:28:13.208Z,13.00
2022-08-25T10:29:13.551Z,13.00
2022-08-25T10:30:13.858Z,10.50
2022-08-25T10:31:14.222Z,8.80
2022-08-25T10:32:14.422Z,8.30
2022-08-25T10:33:14.640Z,7.80
2022-08-25T10:34:14.972Z,7.60
2022-08-25T10:35:15.289Z,8.10
2022-08-25T10:36:15.570Z,8.00
2022-08-25T10:37:15.850Z,8.30
2022-08-25T10:38:21.770Z,8.10
2022-08-25T10:39:34.324Z,9.40
2022-08-25T10:40:17.810Z,9.10
2022-08-25T10:41:17.064Z,8.40
2022-08-25T10:42:17.353Z,8.50
2022-08-25T10:43:17.659Z,7.70
2022-08-25T10:44:17.948Z,7.80
2022-08-25T10:45:21.715Z,7.40
2022-08-25T10:46:18.773Z,8.20
2022-08-25T10:47:18.811Z,8.20
2022-08-25T10:48:19.037Z,8.50
2022-08-25T10:49:19.338Z,8.50
2022-08-25T10:50:19.601Z,9.00
2022-08-25T10:51:23.702Z,8.20
2022-08-25T10:52:21.179Z,8.70
2022-08-25T10:53:20.521Z,9.20
2022-08-25T10:54:20.781Z,9.10
2022-08-25T10:55:21.031Z,9.00
2022-08-25T10:56:21.302Z,9.30
2022-08-25T10:57:21.607Z,9.60
2022-08-25T10:58:23.249Z,9.40
2022-08-25T10:59:22.227Z,8.90
2022-08-25T11:00:22.662Z,8.90
2022-08-25T11:01:28.807Z,8.90
2022-08-25T11:02:24.165Z,7.60
2022-08-25T11:03:25.492Z,8.90
2022-08-25T11:04:25.301Z,8.70
2022-08-25T11:05:24.545Z,8.70
2022-08-25T11:06:24.348Z,8.60
2022-08-25T11:07:24.687Z,8.60
2022-08-25T11:08:24.987Z,7.30
2022-08-25T11:09:25.257Z,7.20
2022-08-25T11:10:25.507Z,7.20
2022-08-25T11:11:25.792Z,7.70
2022-08-25T11:12:26.051Z,7.50
2022-08-25T11:13:26.382Z,7.10
2022-08-25T11:14:27.023Z,6.50
2022-08-25T11:15:26.949Z,6.30
2022-08-25T11:16:27.304Z,7.70
2022-08-25T11:17:27.542Z,6.60
2022-08-25T11:18:27.812Z,7.40
2022-08-25T11:19:28.104Z,6.70
2022-08-25T11:20:28.382Z,6.60
2022-08-25T11:21:28.673Z,6.40
2022-08-25T11:22:28.867Z,6.50
2022-08-25T11:23:29.186Z,6.60
2022-08-25T11:24:29.398Z,6.10
2022-08-25T11:25:29.712Z,6.10
2022-08-25T11:26:32.839Z,6.20
2022-08-25T11:27:30.361Z,7.30
2022-08-25T11:28:30.631Z,6.50
2022-08-25T11:29:30.918Z,5.50
2022-08-25T11:30:31.234Z,6.00
2022-08-25T11:31:31.508Z,6.10
2022-08-25T11:32:31.796Z,5.70
2022-08-25T11:33:32.109Z,5.50
2022-08-25T11:34:32.361Z,6.00
2022-08-25T11:35:32.621Z,5.10
2022-08-25T11:36:32.910Z,5.00
2022-08-25T11:37:33.173Z,5.10
2022-08-25T11:38:36.242Z,5.00
2022-08-25T11:39:34.611Z,5.10
2022-08-25T11:40:34.426Z,5.10
2022-08-25T11:41:34.292Z,5.10
2022-08-25T11:42:34.609Z,5.30
2022-08-25T11:43:35.610Z,4.80
2022-08-25T11:44:35.090Z,4.90
2022-08-25T11:45:35.354Z,5.30
2022-08-25T11:46:35.696Z,4.80
2022-08-25T11:47:35.976Z,4.40
2022-08-25T11:48:36.280Z,4.70
2022-08-25T11:49:36.570Z,5.20
2022-08-25T11:50:36.850Z,5.00
2022-08-25T11:51:37.193Z,5.60
2022-08-25T11:52:37.468Z,5.30
2022-08-25T11:53:37.957Z,6.30
2022-08-25T11:54:38.052Z,5.40
2022-08-25T11:55:38.322Z,5.70
2022-08-25T11:56:40.076Z,5.10
2022-08-25T11:57:38.895Z,5.80
2022-08-25T11:58:39.153Z,5.80
2022-08-25T11:59:39.483Z,5.60
2022-08-25T12:00:39.734Z,5.80
2022-08-25T12:01:40.280Z,5.40
2022-08-25T12:02:40.360Z,4.60
2022-08-25T12:03:40.584Z,5.20
2022-08-25T12:04:44.042Z,4.50
2022-08-25T12:05:41.176Z,4.30
2022-08-25T12:06:41.428Z,3.50
2022-08-25T12:07:41.718Z,3.80
2022-08-25T12:08:41.978Z,4.20
2022-08-25T12:09:42.225Z,4.10
2022-08-25T12:10:42.458Z,3.50
2022-08-25T12:11:42.740Z,3.50
2022-08-25T12:12:43.021Z,3.70
2022-08-25T12:13:43.301Z,3.50
2022-08-25T12:14:43.536Z,3.80
2022-08-25T12:15:43.801Z,3.60
2022-08-25T12:16:44.111Z,3.10
2022-08-25T12:17:44.402Z,2.70
2022-08-25T12:18:45.829Z,3.40
2022-08-25T12:19:44.965Z,2.90
2022-08-25T12:20:45.213Z,3.20
2022-08-25T12:21:46.295Z,3.10
2022-08-25T12:22:45.827Z,2.70
2022-08-25T12:23:46.411Z,3.30
2022-08-25T12:24:48.736Z,3.10
2022-08-25T12:25:46.678Z,3.00
2022-08-25T12:26:46.915Z,3.00
2022-08-25T12:27:47.228Z,3.60
2022-08-25T12:28:47.480Z,2.40
2022-08-25T12:29:47.770Z,3.30
2022-08-25T12:30:48.051Z,3.30
2022-08-25T12:31:49.040Z,3.00
2022-08-25T12:32:48.523Z,3.10
2022-08-25T12:33:48.792Z,4.60
2022-08-25T12:34:49.080Z,4.20
2022-08-25T12:35:49.343Z,5.00
2022-08-25T12:36:49.613Z,4.40
2022-08-25T12:37:49.882Z,4.60
2022-08-25T12:38:52.185Z,4.80
2022-08-25T12:39:50.569Z,4.20
2022-08-25T12:40:50.697Z,4.50
2022-08-25T12:41:51.127Z,4.00
2022-08-25T12:42:51.330Z,3.20
2022-08-25T12:43:51.607Z,3.90
2022-08-25T12:44:51.854Z,3.30
2022-08-25T12:45:53.077Z,3.10
2022-08-25T12:46:52.478Z,3.10
2022-08-25T12:47:52.721Z,2.30
2022-08-25T12:48:52.979Z,2.60
2022-08-25T12:49:53.262Z,3.90
2022-08-25T12:50:53.594Z,3.60
2022-08-25T12:51:53.871Z,3.60
2022-08-25T12:52:54.144Z,3.40
2022-08-25T12:53:54.422Z,3.00
2022-08-25T12:54:54.695Z,3.40
2022-08-25T12:55:54.983Z,2.90
2022-08-25T12:56:55.256Z,3.70
2022-08-25T12:57:55.526Z,3.10
2022-08-25T12:59:01.179Z,3.40
2022-08-25T12:59:57.119Z,3.30
2022-08-25T13:00:57.980Z,3.20
2022-08-25T13:01:56.845Z,3.00
2022-08-25T13:02:57.244Z,3.30
2022-08-25T13:03:57.339Z,2.70
2022-08-25T13:04:57.590Z,3.20
2022-08-25T13:05:57.849Z,3.40
2022-08-25T13:06:58.198Z,4.70
2022-08-25T13:07:58.454Z,3.90